sensor_id;sensor_type;location;lat;lon;timestamp;temperature;humidity
4725;DHT22;2376;53.544;10.226;2023-03-05T00:01:18;6.60;99.90
4725;DHT22;2376;53.544;10.226;2023-03-05T00:03:48;6.70;99.90
4725;DHT22;2376;53.544;10.226;2023-03-05T00:06:16;6.60;99.90
4725;DHT22;2376;53.544;10.226;2023-03-05T00:08:43;6.60;99.90
4725;DHT22;2376;53.544;10.226;2023-03-05T00:11:11;6.70;99.90
4725;DHT22;2376;53.544;10.226;2023-03-05T00:13:38;6.70;99.90
4725;DHT22;2376;53.544;10.226;2023-03-05T00:16:07;6.70;99.90
4725;DHT22;2376;53.544;10.226;2023-03-05T00:18:34;6.70;99.90
4725;DHT22;2376;53.544;10.226;2023-03-05T00:21:03;6.70;99.90
4725;DHT22;2376;53.544;10.226;2023-03-05T00:23:30;6.70;99.90
4725;DHT22;2376;53.544;10.226;2023-03-05T00:26:00;6.70;99.90
4725;DHT22;2376;53.544;10.226;2023-03-05T00:28:28;6.70;99.90
4725;DHT22;2376;53.544;10.226;2023-03-05T00:30:58;6.70;99.90
4725;DHT22;2376;53.544;10.226;2023-03-05T00:33:25;6.70;99.90
4725;DHT22;2376;53.544;10.226;2023-03-05T00:35:51;6.60;99.90
4725;DHT22;2376;53.544;10.226;2023-03-05T00:38:20;6.50;99.90
4725;DHT22;2376;53.544;10.226;2023-03-05T00:40:49;6.40;99.90
4725;DHT22;2376;53.544;10.226;2023-03-05T00:43:16;6.50;99.90
4725;DHT22;2376;53.544;10.226;2023-03-05T00:45:42;6.60;99.90
4725;DHT22;2376;53.544;10.226;2023-03-05T00:48:09;6.60;99.90
4725;DHT22;2376;53.544;10.226;2023-03-05T00:50:36;6.60;99.90
4725;DHT22;2376;53.544;10.226;2023-03-05T00:53:02;6.40;99.90
4725;DHT22;2376;53.544;10.226;2023-03-05T00:55:30;6.40;99.90
4725;DHT22;2376;53.544;10.226;2023-03-05T00:57:57;6.30;99.90
4725;DHT22;2376;53.544;10.226;2023-03-05T01:00:24;6.40;99.90
4725;DHT22;2376;53.544;10.226;2023-03-05T01:02:51;6.30;99.90
4725;DHT22;2376;53.544;10.226;2023-03-05T01:05:17;6.40;99.90
4725;DHT22;2376;53.544;10.226;2023-03-05T01:07:44;6.40;99.90
4725;DHT22;2376;53.544;10.226;2023-03-05T01:10:12;6.30;99.90
4725;DHT22;2376;53.544;10.226;2023-03-05T01:12:40;6.30;99.90
4725;DHT22;2376;53.544;10.226;2023-03-05T01:15:07;6.40;99.90
4725;DHT22;2376;53.544;10.226;2023-03-05T01:17:33;6.30;99.90
4725;DHT22;2376;53.544;10.226;2023-03-05T01:20:00;6.40;99.90
4725;DHT22;2376;53.544;10.226;2023-03-05T01:22:27;6.20;99.90
4725;DHT22;2376;53.544;10.226;2023-03-05T01:24:54;6.10;99.90
4725;DHT22;2376;53.544;10.226;2023-03-05T01:27:21;6.20;99.90
4725;DHT22;2376;53.544;10.226;2023-03-05T01:29:49;6.20;99.90
4725;DHT22;2376;53.544;10.226;2023-03-05T01:32:16;6.30;99.90
4725;DHT22;2376;53.544;10.226;2023-03-05T01:34:43;6.30;99.90
4725;DHT22;2376;53.544;10.226;2023-03-05T01:37:09;6.40;99.90
4725;DHT22;2376;53.544;10.226;2023-03-05T01:39:36;6.50;99.90
4725;DHT22;2376;53.544;10.226;2023-03-05T01:42:03;6.40;99.90
4725;DHT22;2376;53.544;10.226;2023-03-05T01:44:31;6.30;99.90
4725;DHT22;2376;53.544;10.226;2023-03-05T01:46:59;6.30;99.90
4725;DHT22;2376;53.544;10.226;2023-03-05T01:49:27;6.40;99.90
4725;DHT22;2376;53.544;10.226;2023-03-05T01:51:59;6.30;99.90
4725;DHT22;2376;53.544;10.226;2023-03-05T01:54:31;6.30;99.90
4725;DHT22;2376;53.544;10.226;2023-03-05T01:57:03;6.30;99.90
4725;DHT22;2376;53.544;10.226;2023-03-05T01:59:30;6.30;99.90
4725;DHT22;2376;53.544;10.226;2023-03-05T02:01:59;6.40;99.90
4725;DHT22;2376;53.544;10.226;2023-03-05T02:04:31;6.30;99.90
4725;DHT22;2376;53.544;10.226;2023-03-05T02:06:59;6.30;99.90
4725;DHT22;2376;53.544;10.226;2023-03-05T02:09:26;6.30;99.90
4725;DHT22;2376;53.544;10.226;2023-03-05T02:11:54;6.20;99.90
4725;DHT22;2376;53.544;10.226;2023-03-05T02:14:21;6.20;99.90
4725;DHT22;2376;53.544;10.226;2023-03-05T02:16:49;6.20;99.90
4725;DHT22;2376;53.544;10.226;2023-03-05T02:19:17;6.20;99.90
4725;DHT22;2376;53.544;10.226;2023-03-05T02:21:47;6.10;99.90
4725;DHT22;2376;53.544;10.226;2023-03-05T02:24:16;6.00;99.90
4725;DHT22;2376;53.544;10.226;2023-03-05T02:26:43;6.10;99.90
4725;DHT22;2376;53.544;10.226;2023-03-05T02:29:13;6.10;99.90
4725;DHT22;2376;53.544;10.226;2023-03-05T02:31:41;6.20;99.90
4725;DHT22;2376;53.544;10.226;2023-03-05T02:34:07;6.20;99.90
4725;DHT22;2376;53.544;10.226;2023-03-05T02:36:34;6.20;99.90
4725;DHT22;2376;53.544;10.226;2023-03-05T02:39:03;6.10;99.90
4725;DHT22;2376;53.544;10.226;2023-03-05T02:41:30;6.10;99.90
4725;DHT22;2376;53.544;10.226;2023-03-05T02:46:25;6.10;99.90
4725;DHT22;2376;53.544;10.226;2023-03-05T02:48:51;6.10;99.90
4725;DHT22;2376;53.544;10.226;2023-03-05T02:51:18;6.10;99.90
4725;DHT22;2376;53.544;10.226;2023-03-05T02:53:45;6.10;99.90
4725;DHT22;2376;53.544;10.226;2023-03-05T02:56:13;6.10;99.90
4725;DHT22;2376;53.544;10.226;2023-03-05T02:58:40;6.10;99.90
4725;DHT22;2376;53.544;10.226;2023-03-05T03:01:07;6.10;99.90
4725;DHT22;2376;53.544;10.226;2023-03-05T03:03:34;6.10;99.90
4725;DHT22;2376;53.544;10.226;2023-03-05T03:06:01;6.00;99.90
4725;DHT22;2376;53.544;10.226;2023-03-05T03:08:28;6.00;99.90
4725;DHT22;2376;53.544;10.226;2023-03-05T03:10:55;6.00;99.90
4725;DHT22;2376;53.544;10.226;2023-03-05T03:13:23;6.00;99.90
4725;DHT22;2376;53.544;10.226;2023-03-05T03:15:50;6.00;99.90
4725;DHT22;2376;53.544;10.226;2023-03-05T03:18:16;6.00;99.90
4725;DHT22;2376;53.544;10.226;2023-03-05T03:20:43;6.00;99.90
4725;DHT22;2376;53.544;10.226;2023-03-05T03:23:10;6.10;99.90
4725;DHT22;2376;53.544;10.226;2023-03-05T03:25:36;6.10;99.90
4725;DHT22;2376;53.544;10.226;2023-03-05T03:28:03;6.10;99.90
4725;DHT22;2376;53.544;10.226;2023-03-05T03:30:31;6.10;99.90
4725;DHT22;2376;53.544;10.226;2023-03-05T03:32:58;6.00;99.90
4725;DHT22;2376;53.544;10.226;2023-03-05T03:35:24;6.00;99.90
4725;DHT22;2376;53.544;10.226;2023-03-05T03:37:51;6.00;99.90
4725;DHT22;2376;53.544;10.226;2023-03-05T03:40:18;5.90;99.90
4725;DHT22;2376;53.544;10.226;2023-03-05T03:42:45;5.90;99.90
4725;DHT22;2376;53.544;10.226;2023-03-05T03:45:12;5.90;99.90
4725;DHT22;2376;53.544;10.226;2023-03-05T03:47:40;5.80;99.90
4725;DHT22;2376;53.544;10.226;2023-03-05T03:50:08;5.70;99.90
4725;DHT22;2376;53.544;10.226;2023-03-05T03:52:35;5.30;99.90
4725;DHT22;2376;53.544;10.226;2023-03-05T03:55:02;5.20;99.90
4725;DHT22;2376;53.544;10.226;2023-03-05T03:57:29;5.30;99.90
4725;DHT22;2376;53.544;10.226;2023-03-05T03:59:58;5.40;99.90
4725;DHT22;2376;53.544;10.226;2023-03-05T04:02:25;5.50;99.90
4725;DHT22;2376;53.544;10.226;2023-03-05T04:04:53;5.70;99.90
4725;DHT22;2376;53.544;10.226;2023-03-05T04:07:19;5.70;99.90
4725;DHT22;2376;53.544;10.226;2023-03-05T04:09:46;5.70;99.90
4725;DHT22;2376;53.544;10.226;2023-03-05T04:12:13;5.80;99.90
4725;DHT22;2376;53.544;10.226;2023-03-05T04:14:43;5.70;99.90
4725;DHT22;2376;53.544;10.226;2023-03-05T04:17:10;5.60;99.90
4725;DHT22;2376;53.544;10.226;2023-03-05T04:19:37;5.70;99.90
4725;DHT22;2376;53.544;10.226;2023-03-05T04:22:05;5.70;99.90
4725;DHT22;2376;53.544;10.226;2023-03-05T04:24:32;5.80;99.90
4725;DHT22;2376;53.544;10.226;2023-03-05T04:26:59;5.80;99.90
4725;DHT22;2376;53.544;10.226;2023-03-05T04:29:25;5.80;99.90
4725;DHT22;2376;53.544;10.226;2023-03-05T04:31:52;5.80;99.90
4725;DHT22;2376;53.544;10.226;2023-03-05T04:34:19;5.80;99.90
4725;DHT22;2376;53.544;10.226;2023-03-05T04:36:45;5.70;99.90
4725;DHT22;2376;53.544;10.226;2023-03-05T04:39:13;5.60;99.90
4725;DHT22;2376;53.544;10.226;2023-03-05T04:41:40;5.60;99.90
4725;DHT22;2376;53.544;10.226;2023-03-05T04:44:07;5.60;99.90
4725;DHT22;2376;53.544;10.226;2023-03-05T04:46:34;5.70;99.90
4725;DHT22;2376;53.544;10.226;2023-03-05T04:49:00;5.70;99.90
4725;DHT22;2376;53.544;10.226;2023-03-05T04:51:27;5.70;99.90
4725;DHT22;2376;53.544;10.226;2023-03-05T04:53:54;5.80;99.90
4725;DHT22;2376;53.544;10.226;2023-03-05T04:56:22;5.80;99.90
4725;DHT22;2376;53.544;10.226;2023-03-05T04:58:49;5.80;99.90
4725;DHT22;2376;53.544;10.226;2023-03-05T05:01:15;5.70;99.90
4725;DHT22;2376;53.544;10.226;2023-03-05T05:03:42;5.70;99.90
4725;DHT22;2376;53.544;10.226;2023-03-05T05:06:09;5.70;99.90
4725;DHT22;2376;53.544;10.226;2023-03-05T05:08:35;5.70;99.90
4725;DHT22;2376;53.544;10.226;2023-03-05T05:11:04;5.70;99.90
4725;DHT22;2376;53.544;10.226;2023-03-05T05:13:33;5.60;99.90
4725;DHT22;2376;53.544;10.226;2023-03-05T05:16:00;5.70;99.90
4725;DHT22;2376;53.544;10.226;2023-03-05T05:18:27;5.70;99.90
4725;DHT22;2376;53.544;10.226;2023-03-05T05:20:53;5.70;99.90
4725;DHT22;2376;53.544;10.226;2023-03-05T05:23:20;5.70;99.90
4725;DHT22;2376;53.544;10.226;2023-03-05T05:25:56;5.70;99.90
4725;DHT22;2376;53.544;10.226;2023-03-05T05:28:23;5.70;99.90
4725;DHT22;2376;53.544;10.226;2023-03-05T05:30:51;5.80;99.90
4725;DHT22;2376;53.544;10.226;2023-03-05T05:33:17;5.80;99.90
4725;DHT22;2376;53.544;10.226;2023-03-05T05:35:44;5.80;99.90
4725;DHT22;2376;53.544;10.226;2023-03-05T05:38:11;5.80;99.90
4725;DHT22;2376;53.544;10.226;2023-03-05T05:40:38;5.80;99.90
4725;DHT22;2376;53.544;10.226;2023-03-05T05:43:05;5.70;99.90
4725;DHT22;2376;53.544;10.226;2023-03-05T05:45:32;5.70;99.90
4725;DHT22;2376;53.544;10.226;2023-03-05T05:48:00;5.60;99.90
4725;DHT22;2376;53.544;10.226;2023-03-05T05:50:26;5.70;99.90
4725;DHT22;2376;53.544;10.226;2023-03-05T05:52:53;5.70;99.90
4725;DHT22;2376;53.544;10.226;2023-03-05T05:55:20;5.80;99.90
4725;DHT22;2376;53.544;10.226;2023-03-05T05:57:47;5.80;99.90
4725;DHT22;2376;53.544;10.226;2023-03-05T06:00:14;5.70;99.90
4725;DHT22;2376;53.544;10.226;2023-03-05T06:02:42;5.70;99.90
4725;DHT22;2376;53.544;10.226;2023-03-05T06:05:12;5.70;99.90
4725;DHT22;2376;53.544;10.226;2023-03-05T06:07:40;5.60;99.90
4725;DHT22;2376;53.544;10.226;2023-03-05T06:10:08;5.70;99.90
4725;DHT22;2376;53.544;10.226;2023-03-05T06:12:35;5.70;99.90
4725;DHT22;2376;53.544;10.226;2023-03-05T06:15:03;5.70;99.90
4725;DHT22;2376;53.544;10.226;2023-03-05T06:17:29;5.80;99.90
4725;DHT22;2376;53.544;10.226;2023-03-05T06:19:56;5.70;99.90
4725;DHT22;2376;53.544;10.226;2023-03-05T06:22:24;5.70;99.90
4725;DHT22;2376;53.544;10.226;2023-03-05T06:24:51;5.70;99.90
4725;DHT22;2376;53.544;10.226;2023-03-05T06:27:18;5.70;99.90
4725;DHT22;2376;53.544;10.226;2023-03-05T06:29:44;5.80;99.90
4725;DHT22;2376;53.544;10.226;2023-03-05T06:32:11;5.80;99.90
4725;DHT22;2376;53.544;10.226;2023-03-05T06:34:38;5.80;99.90
4725;DHT22;2376;53.544;10.226;2023-03-05T06:37:05;5.80;99.90
4725;DHT22;2376;53.544;10.226;2023-03-05T06:39:34;5.80;99.90
4725;DHT22;2376;53.544;10.226;2023-03-05T06:42:00;5.80;99.90
4725;DHT22;2376;53.544;10.226;2023-03-05T06:44:27;5.80;99.90
4725;DHT22;2376;53.544;10.226;2023-03-05T06:46:54;5.90;99.90
4725;DHT22;2376;53.544;10.226;2023-03-05T06:49:21;5.80;99.90
4725;DHT22;2376;53.544;10.226;2023-03-05T06:51:47;5.80;99.90
4725;DHT22;2376;53.544;10.226;2023-03-05T06:54:16;5.80;99.90
4725;DHT22;2376;53.544;10.226;2023-03-05T06:56:45;5.70;99.90
4725;DHT22;2376;53.544;10.226;2023-03-05T06:59:13;5.70;99.90
4725;DHT22;2376;53.544;10.226;2023-03-05T07:01:40;5.80;99.90
4725;DHT22;2376;53.544;10.226;2023-03-05T07:04:07;5.90;99.90
4725;DHT22;2376;53.544;10.226;2023-03-05T07:06:35;5.90;99.90
4725;DHT22;2376;53.544;10.226;2023-03-05T07:09:04;5.90;99.90
4725;DHT22;2376;53.544;10.226;2023-03-05T07:11:32;5.90;99.90
4725;DHT22;2376;53.544;10.226;2023-03-05T07:14:01;5.90;99.90
4725;DHT22;2376;53.544;10.226;2023-03-05T07:16:30;6.00;99.90
4725;DHT22;2376;53.544;10.226;2023-03-05T07:18:58;6.00;99.90
4725;DHT22;2376;53.544;10.226;2023-03-05T07:21:28;6.00;99.90
4725;DHT22;2376;53.544;10.226;2023-03-05T07:23:56;6.00;99.90
4725;DHT22;2376;53.544;10.226;2023-03-05T07:26:23;5.90;99.90
4725;DHT22;2376;53.544;10.226;2023-03-05T07:28:50;6.00;99.90
4725;DHT22;2376;53.544;10.226;2023-03-05T07:31:20;5.90;99.90
4725;DHT22;2376;53.544;10.226;2023-03-05T07:33:48;5.80;99.90
4725;DHT22;2376;53.544;10.226;2023-03-05T07:36:17;5.90;99.90
4725;DHT22;2376;53.544;10.226;2023-03-05T07:38:44;5.90;99.90
4725;DHT22;2376;53.544;10.226;2023-03-05T07:41:13;5.90;99.90
4725;DHT22;2376;53.544;10.226;2023-03-05T07:43:44;5.90;99.90
4725;DHT22;2376;53.544;10.226;2023-03-05T07:46:14;6.00;99.90
4725;DHT22;2376;53.544;10.226;2023-03-05T07:48:42;6.00;99.90
4725;DHT22;2376;53.544;10.226;2023-03-05T07:51:12;6.10;99.90
4725;DHT22;2376;53.544;10.226;2023-03-05T07:53:39;6.20;99.90
4725;DHT22;2376;53.544;10.226;2023-03-05T07:56:06;6.20;99.90
4725;DHT22;2376;53.544;10.226;2023-03-05T07:58:34;6.20;99.90
4725;DHT22;2376;53.544;10.226;2023-03-05T08:01:00;6.20;99.90
4725;DHT22;2376;53.544;10.226;2023-03-05T08:03:27;6.20;99.90
4725;DHT22;2376;53.544;10.226;2023-03-05T08:05:55;6.20;99.90
4725;DHT22;2376;53.544;10.226;2023-03-05T08:08:22;6.30;99.90
4725;DHT22;2376;53.544;10.226;2023-03-05T08:10:48;6.20;99.90
4725;DHT22;2376;53.544;10.226;2023-03-05T08:13:15;6.20;99.90
4725;DHT22;2376;53.544;10.226;2023-03-05T08:15:42;6.20;99.90
4725;DHT22;2376;53.544;10.226;2023-03-05T08:18:09;6.30;99.90
4725;DHT22;2376;53.544;10.226;2023-03-05T08:20:35;6.30;99.90
4725;DHT22;2376;53.544;10.226;2023-03-05T08:23:03;6.40;99.90
4725;DHT22;2376;53.544;10.226;2023-03-05T08:25:30;6.40;99.90
4725;DHT22;2376;53.544;10.226;2023-03-05T08:27:57;6.40;99.90
4725;DHT22;2376;53.544;10.226;2023-03-05T08:30:24;6.40;99.90
4725;DHT22;2376;53.544;10.226;2023-03-05T08:32:52;6.40;99.90
4725;DHT22;2376;53.544;10.226;2023-03-05T08:35:18;6.40;99.90
4725;DHT22;2376;53.544;10.226;2023-03-05T08:37:45;6.40;99.90
4725;DHT22;2376;53.544;10.226;2023-03-05T08:40:14;6.40;99.90
4725;DHT22;2376;53.544;10.226;2023-03-05T08:42:42;6.40;99.90
4725;DHT22;2376;53.544;10.226;2023-03-05T08:45:10;6.50;99.90
4725;DHT22;2376;53.544;10.226;2023-03-05T08:47:37;6.50;99.90
4725;DHT22;2376;53.544;10.226;2023-03-05T08:50:04;6.50;99.90
4725;DHT22;2376;53.544;10.226;2023-03-05T08:52:31;6.50;99.90
4725;DHT22;2376;53.544;10.226;2023-03-05T08:54:58;6.50;99.90
4725;DHT22;2376;53.544;10.226;2023-03-05T08:57:26;6.60;99.90
4725;DHT22;2376;53.544;10.226;2023-03-05T08:59:52;6.70;99.90
4725;DHT22;2376;53.544;10.226;2023-03-05T09:02:19;6.70;99.90
4725;DHT22;2376;53.544;10.226;2023-03-05T09:04:46;6.80;99.90
4725;DHT22;2376;53.544;10.226;2023-03-05T09:07:12;6.90;99.90
4725;DHT22;2376;53.544;10.226;2023-03-05T09:09:39;6.90;99.90
4725;DHT22;2376;53.544;10.226;2023-03-05T09:12:06;6.90;99.90
4725;DHT22;2376;53.544;10.226;2023-03-05T09:14:35;7.00;99.90
4725;DHT22;2376;53.544;10.226;2023-03-05T09:17:02;7.00;99.90
4725;DHT22;2376;53.544;10.226;2023-03-05T09:19:29;7.00;99.90
4725;DHT22;2376;53.544;10.226;2023-03-05T09:21:55;7.00;99.90
4725;DHT22;2376;53.544;10.226;2023-03-05T09:24:22;7.00;99.90
4725;DHT22;2376;53.544;10.226;2023-03-05T09:26:49;7.10;99.90
4725;DHT22;2376;53.544;10.226;2023-03-05T09:29:16;7.00;99.90
4725;DHT22;2376;53.544;10.226;2023-03-05T09:31:44;6.90;99.90
4725;DHT22;2376;53.544;10.226;2023-03-05T09:34:12;6.80;99.90
4725;DHT22;2376;53.544;10.226;2023-03-05T09:36:39;6.90;99.90
4725;DHT22;2376;53.544;10.226;2023-03-05T09:39:06;6.80;99.90
4725;DHT22;2376;53.544;10.226;2023-03-05T09:41:39;6.90;99.90
4725;DHT22;2376;53.544;10.226;2023-03-05T09:44:21;7.20;99.90
4725;DHT22;2376;53.544;10.226;2023-03-05T09:46:53;7.20;99.90
4725;DHT22;2376;53.544;10.226;2023-03-05T09:49:31;7.30;99.90
4725;DHT22;2376;53.544;10.226;2023-03-05T09:52:02;7.30;99.90
4725;DHT22;2376;53.544;10.226;2023-03-05T09:54:37;7.20;99.90
4725;DHT22;2376;53.544;10.226;2023-03-05T09:57:11;7.20;99.90
4725;DHT22;2376;53.544;10.226;2023-03-05T09:59:45;7.40;99.90
4725;DHT22;2376;53.544;10.226;2023-03-05T10:02:18;7.30;99.90
4725;DHT22;2376;53.544;10.226;2023-03-05T10:04:49;7.50;99.90
4725;DHT22;2376;53.544;10.226;2023-03-05T10:07:21;7.50;99.90
4725;DHT22;2376;53.544;10.226;2023-03-05T10:09:56;7.20;99.90
4725;DHT22;2376;53.544;10.226;2023-03-05T10:12:26;7.10;99.90
4725;DHT22;2376;53.544;10.226;2023-03-05T10:14:58;7.20;99.90
4725;DHT22;2376;53.544;10.226;2023-03-05T10:17:48;7.40;99.90
4725;DHT22;2376;53.544;10.226;2023-03-05T10:20:39;7.20;99.90
4725;DHT22;2376;53.544;10.226;2023-03-05T10:23:20;7.20;99.90
4725;DHT22;2376;53.544;10.226;2023-03-05T10:26:03;7.10;99.30
4725;DHT22;2376;53.544;10.226;2023-03-05T10:28:41;7.00;99.90
4725;DHT22;2376;53.544;10.226;2023-03-05T10:31:29;7.10;99.90
4725;DHT22;2376;53.544;10.226;2023-03-05T10:37:07;7.10;99.90
4725;DHT22;2376;53.544;10.226;2023-03-05T10:39:45;7.30;99.90
4725;DHT22;2376;53.544;10.226;2023-03-05T10:42:21;7.50;99.90
4725;DHT22;2376;53.544;10.226;2023-03-05T10:44:52;7.60;99.90
4725;DHT22;2376;53.544;10.226;2023-03-05T10:47:24;7.70;99.90
4725;DHT22;2376;53.544;10.226;2023-03-05T10:49:54;7.70;99.90
4725;DHT22;2376;53.544;10.226;2023-03-05T10:52:26;7.70;99.90
4725;DHT22;2376;53.544;10.226;2023-03-05T10:54:54;7.60;99.90
4725;DHT22;2376;53.544;10.226;2023-03-05T10:57:23;7.70;99.90
4725;DHT22;2376;53.544;10.226;2023-03-05T10:59:51;7.70;99.90
4725;DHT22;2376;53.544;10.226;2023-03-05T11:02:20;7.80;99.90
4725;DHT22;2376;53.544;10.226;2023-03-05T11:04:48;7.90;99.90
4725;DHT22;2376;53.544;10.226;2023-03-05T11:07:46;7.80;99.90
4725;DHT22;2376;53.544;10.226;2023-03-05T11:10:16;7.80;99.90
4725;DHT22;2376;53.544;10.226;2023-03-05T11:12:44;7.90;99.90
4725;DHT22;2376;53.544;10.226;2023-03-05T11:15:28;8.10;99.90
4725;DHT22;2376;53.544;10.226;2023-03-05T11:18:15;8.10;99.90
4725;DHT22;2376;53.544;10.226;2023-03-05T11:20:42;8.10;99.90
4725;DHT22;2376;53.544;10.226;2023-03-05T11:23:13;7.80;99.90
4725;DHT22;2376;53.544;10.226;2023-03-05T11:25:55;7.90;99.90
4725;DHT22;2376;53.544;10.226;2023-03-05T11:28:25;8.20;99.90
4725;DHT22;2376;53.544;10.226;2023-03-05T11:31:07;8.30;98.60
4725;DHT22;2376;53.544;10.226;2023-03-05T11:33:38;8.10;97.50
4725;DHT22;2376;53.544;10.226;2023-03-05T11:36:23;7.80;97.30
4725;DHT22;2376;53.544;10.226;2023-03-05T11:38:55;7.90;98.60
4725;DHT22;2376;53.544;10.226;2023-03-05T11:41:28;8.00;97.70
4725;DHT22;2376;53.544;10.226;2023-03-05T11:43:58;8.00;98.30
4725;DHT22;2376;53.544;10.226;2023-03-05T11:46:28;8.00;97.90
4725;DHT22;2376;53.544;10.226;2023-03-05T11:48:58;8.00;97.50
4725;DHT22;2376;53.544;10.226;2023-03-05T11:51:30;6.80;99.90
4725;DHT22;2376;53.544;10.226;2023-03-05T11:54:05;5.60;99.90
4725;DHT22;2376;53.544;10.226;2023-03-05T11:56:35;4.90;99.90
4725;DHT22;2376;53.544;10.226;2023-03-05T11:59:06;4.40;99.90
4725;DHT22;2376;53.544;10.226;2023-03-05T12:01:41;4.60;99.90
4725;DHT22;2376;53.544;10.226;2023-03-05T12:04:09;4.90;99.90
4725;DHT22;2376;53.544;10.226;2023-03-05T12:06:38;5.20;99.90
4725;DHT22;2376;53.544;10.226;2023-03-05T12:09:12;5.40;99.90
4725;DHT22;2376;53.544;10.226;2023-03-05T12:11:41;5.30;99.90
4725;DHT22;2376;53.544;10.226;2023-03-05T12:14:16;5.70;99.90
4725;DHT22;2376;53.544;10.226;2023-03-05T12:16:49;6.10;99.90
4725;DHT22;2376;53.544;10.226;2023-03-05T12:19:29;6.20;99.90
4725;DHT22;2376;53.544;10.226;2023-03-05T12:22:15;6.60;99.90
4725;DHT22;2376;53.544;10.226;2023-03-05T12:24:44;6.80;99.90
4725;DHT22;2376;53.544;10.226;2023-03-05T12:27:13;7.00;99.90
4725;DHT22;2376;53.544;10.226;2023-03-05T12:29:43;7.00;99.90
4725;DHT22;2376;53.544;10.226;2023-03-05T12:32:49;7.30;99.90
4725;DHT22;2376;53.544;10.226;2023-03-05T12:35:24;7.20;99.90
4725;DHT22;2376;53.544;10.226;2023-03-05T12:38:14;7.50;99.90
4725;DHT22;2376;53.544;10.226;2023-03-05T12:40:43;7.40;99.90
4725;DHT22;2376;53.544;10.226;2023-03-05T12:43:29;7.60;99.90
4725;DHT22;2376;53.544;10.226;2023-03-05T12:46:24;7.60;99.90
4725;DHT22;2376;53.544;10.226;2023-03-05T12:48:51;7.70;99.90
4725;DHT22;2376;53.544;10.226;2023-03-05T12:51:36;7.90;99.90
4725;DHT22;2376;53.544;10.226;2023-03-05T12:54:26;8.00;99.90
4725;DHT22;2376;53.544;10.226;2023-03-05T12:56:57;8.00;99.90
4725;DHT22;2376;53.544;10.226;2023-03-05T12:59:29;7.90;99.90
4725;DHT22;2376;53.544;10.226;2023-03-05T13:02:00;8.10;99.90
4725;DHT22;2376;53.544;10.226;2023-03-05T13:04:30;8.20;99.90
4725;DHT22;2376;53.544;10.226;2023-03-05T13:07:00;8.20;99.90
4725;DHT22;2376;53.544;10.226;2023-03-05T13:09:28;8.00;99.20
4725;DHT22;2376;53.544;10.226;2023-03-05T13:11:59;8.20;99.70
4725;DHT22;2376;53.544;10.226;2023-03-05T13:14:31;7.70;99.60
4725;DHT22;2376;53.544;10.226;2023-03-05T13:16:59;7.50;99.90
4725;DHT22;2376;53.544;10.226;2023-03-05T13:19:27;7.20;99.90
4725;DHT22;2376;53.544;10.226;2023-03-05T13:22:00;6.30;99.90
4725;DHT22;2376;53.544;10.226;2023-03-05T13:24:27;6.20;99.90
4725;DHT22;2376;53.544;10.226;2023-03-05T13:26:54;6.40;99.90
4725;DHT22;2376;53.544;10.226;2023-03-05T13:29:24;6.50;99.90
4725;DHT22;2376;53.544;10.226;2023-03-05T13:31:55;6.40;99.90
4725;DHT22;2376;53.544;10.226;2023-03-05T13:34:24;6.30;99.90
4725;DHT22;2376;53.544;10.226;2023-03-05T13:36:56;6.50;99.90
4725;DHT22;2376;53.544;10.226;2023-03-05T13:39:26;6.60;99.90
4725;DHT22;2376;53.544;10.226;2023-03-05T13:41:56;6.90;99.90
4725;DHT22;2376;53.544;10.226;2023-03-05T13:44:24;7.20;99.90
4725;DHT22;2376;53.544;10.226;2023-03-05T13:46:51;7.30;99.90
4725;DHT22;2376;53.544;10.226;2023-03-05T13:49:21;7.50;99.90
4725;DHT22;2376;53.544;10.226;2023-03-05T13:51:50;7.50;99.90
4725;DHT22;2376;53.544;10.226;2023-03-05T13:54:17;7.40;99.90
4725;DHT22;2376;53.544;10.226;2023-03-05T13:56:49;7.30;99.90
4725;DHT22;2376;53.544;10.226;2023-03-05T13:59:16;7.20;99.90
4725;DHT22;2376;53.544;10.226;2023-03-05T14:01:46;7.20;99.90
4725;DHT22;2376;53.544;10.226;2023-03-05T14:04:19;7.10;99.90
4725;DHT22;2376;53.544;10.226;2023-03-05T14:06:48;7.10;99.90
4725;DHT22;2376;53.544;10.226;2023-03-05T14:09:19;7.30;99.90
4725;DHT22;2376;53.544;10.226;2023-03-05T14:11:58;7.60;99.90
4725;DHT22;2376;53.544;10.226;2023-03-05T14:14:27;7.40;99.90
4725;DHT22;2376;53.544;10.226;2023-03-05T14:19:38;7.30;99.90
4725;DHT22;2376;53.544;10.226;2023-03-05T14:22:05;7.20;99.90
4725;DHT22;2376;53.544;10.226;2023-03-05T14:24:32;7.40;99.90
4725;DHT22;2376;53.544;10.226;2023-03-05T14:27:00;7.50;99.90
4725;DHT22;2376;53.544;10.226;2023-03-05T14:29:30;7.60;99.90
4725;DHT22;2376;53.544;10.226;2023-03-05T14:32:02;7.70;99.90
4725;DHT22;2376;53.544;10.226;2023-03-05T14:34:32;7.90;99.90
4725;DHT22;2376;53.544;10.226;2023-03-05T14:37:02;8.00;99.90
4725;DHT22;2376;53.544;10.226;2023-03-05T14:39:35;8.10;99.90
4725;DHT22;2376;53.544;10.226;2023-03-05T14:42:27;8.10;99.90
4725;DHT22;2376;53.544;10.226;2023-03-05T14:44:56;8.10;99.90
4725;DHT22;2376;53.544;10.226;2023-03-05T14:47:25;8.10;99.90
4725;DHT22;2376;53.544;10.226;2023-03-05T14:49:52;8.10;99.90
4725;DHT22;2376;53.544;10.226;2023-03-05T14:52:20;8.10;99.90
4725;DHT22;2376;53.544;10.226;2023-03-05T14:54:48;8.00;99.90
4725;DHT22;2376;53.544;10.226;2023-03-05T14:57:18;8.10;99.90
4725;DHT22;2376;53.544;10.226;2023-03-05T14:59:45;8.00;99.90
4725;DHT22;2376;53.544;10.226;2023-03-05T15:02:14;8.10;99.90
4725;DHT22;2376;53.544;10.226;2023-03-05T15:04:42;7.90;99.90
4725;DHT22;2376;53.544;10.226;2023-03-05T15:07:15;7.90;99.90
4725;DHT22;2376;53.544;10.226;2023-03-05T15:09:42;7.90;99.90
4725;DHT22;2376;53.544;10.226;2023-03-05T15:12:10;8.00;99.90
4725;DHT22;2376;53.544;10.226;2023-03-05T15:14:37;8.10;99.90
4725;DHT22;2376;53.544;10.226;2023-03-05T15:17:05;8.10;99.90
4725;DHT22;2376;53.544;10.226;2023-03-05T15:19:31;8.00;99.00
4725;DHT22;2376;53.544;10.226;2023-03-05T15:21:59;8.00;99.20
4725;DHT22;2376;53.544;10.226;2023-03-05T15:24:26;8.00;99.30
4725;DHT22;2376;53.544;10.226;2023-03-05T15:26:53;7.90;99.10
4725;DHT22;2376;53.544;10.226;2023-03-05T15:29:20;7.90;98.90
4725;DHT22;2376;53.544;10.226;2023-03-05T15:31:46;7.80;99.00
4725;DHT22;2376;53.544;10.226;2023-03-05T15:34:13;7.70;98.50
4725;DHT22;2376;53.544;10.226;2023-03-05T15:36:40;7.60;99.00
4725;DHT22;2376;53.544;10.226;2023-03-05T15:39:08;7.50;99.30
4725;DHT22;2376;53.544;10.226;2023-03-05T15:41:34;7.50;99.60
4725;DHT22;2376;53.544;10.226;2023-03-05T15:44:01;7.60;99.60
4725;DHT22;2376;53.544;10.226;2023-03-05T15:46:28;7.50;99.70
4725;DHT22;2376;53.544;10.226;2023-03-05T15:48:54;7.50;99.60
4725;DHT22;2376;53.544;10.226;2023-03-05T15:51:21;7.50;99.40
4725;DHT22;2376;53.544;10.226;2023-03-05T15:53:48;7.60;99.90
4725;DHT22;2376;53.544;10.226;2023-03-05T15:56:16;7.70;99.90
4725;DHT22;2376;53.544;10.226;2023-03-05T15:58:43;7.80;99.90
4725;DHT22;2376;53.544;10.226;2023-03-05T16:01:11;7.90;99.90
4725;DHT22;2376;53.544;10.226;2023-03-05T16:03:38;8.00;99.90
4725;DHT22;2376;53.544;10.226;2023-03-05T16:06:05;8.00;99.90
4725;DHT22;2376;53.544;10.226;2023-03-05T16:08:34;7.90;99.90
4725;DHT22;2376;53.544;10.226;2023-03-05T16:11:02;7.80;99.90
4725;DHT22;2376;53.544;10.226;2023-03-05T16:13:30;7.70;99.90
4725;DHT22;2376;53.544;10.226;2023-03-05T16:15:57;7.70;99.90
4725;DHT22;2376;53.544;10.226;2023-03-05T16:18:24;7.40;99.90
4725;DHT22;2376;53.544;10.226;2023-03-05T16:20:51;7.50;99.90
4725;DHT22;2376;53.544;10.226;2023-03-05T16:23:18;7.50;99.90